Time;durP1;ratioP1;P1;durP2;ratioP2;P2;SDS_P1;SDS_P2;PMS_P1;PMS_P2;Temp;Humidity;BMP_temperature;BMP_pressure;BME280_temperature;BME280_humidity;BME280_pressure;Samples;Min_cycle;Max_cycle;Signal;HPM_P1;HPM_P2
2023/03/01 00:01:24;;;;;;;58.27;14.30;;;-2.50;99.90;;;;;;5008328;28;20207;-75
2023/03/01 00:03:51;;;;;;;55.67;14.67;;;-2.50;99.90;;;;;;5012772;28;20424;-75
2023/03/01 00:06:17;;;;;;;60.97;15.30;;;-2.40;99.90;;;;;;4996625;28;20417;-72
2023/03/01 00:08:42;;;;;;;50.77;13.97;;;-2.40;99.90;;;;;;5012564;28;20844;-75
2023/03/01 00:11:30;;;;;;;59.60;14.10;;;-2.40;99.90;;;;;;5003336;28;20519;-75
2023/03/01 00:13:58;;;;;;;56.03;14.13;;;-2.50;99.90;;;;;;5006390;28;20194;-74
2023/03/01 00:16:29;;;;;;;54.17;12.93;;;-2.50;99.90;;;;;;5012488;28;20433;-75
2023/03/01 00:18:55;;;;;;;54.53;13.83;;;-2.50;99.90;;;;;;5007400;28;20500;-74
2023/03/01 00:21:22;;;;;;;61.60;14.90;;;-2.50;99.90;;;;;;5008702;28;20430;-75
2023/03/01 00:23:48;;;;;;;52.03;13.60;;;-2.50;99.90;;;;;;5009312;28;21046;-75
2023/03/01 00:26:15;;;;;;;55.40;13.03;;;-2.50;99.90;;;;;;5010428;28;20492;-76
2023/03/01 00:28:42;;;;;;;56.10;13.67;;;-2.60;99.90;;;;;;5010320;28;20525;-74
2023/03/01 00:31:10;;;;;;;55.37;14.70;;;-2.50;99.90;;;;;;5011653;28;20474;-74
2023/03/01 00:33:36;;;;;;;48.77;13.23;;;-2.60;99.90;;;;;;5002455;28;20420;-73
2023/03/01 00:36:03;;;;;;;52.70;14.00;;;-2.60;99.90;;;;;;5010804;28;20503;-74
2023/03/01 00:38:29;;;;;;;56.57;14.17;;;-2.60;99.90;;;;;;5003979;28;20209;-74
2023/03/01 00:40:54;;;;;;;54.43;14.87;;;-2.70;99.90;;;;;;5011068;28;20432;-74
2023/03/01 00:43:20;;;;;;;52.90;13.00;;;-2.70;99.90;;;;;;5006964;28;20473;-73
2023/03/01 00:45:45;;;;;;;53.97;13.50;;;-2.80;99.90;;;;;;5011882;28;20196;-73
2023/03/01 00:48:11;;;;;;;50.80;13.30;;;-2.80;99.90;;;;;;5010065;28;20200;-74
2023/03/01 00:50:36;;;;;;;51.13;14.07;;;-2.80;99.90;;;;;;5012065;28;20240;-74
2023/03/01 00:53:02;;;;;;;51.03;14.60;;;-2.80;99.90;;;;;;4999748;28;20191;-75
2023/03/01 00:55:27;;;;;;;50.10;14.00;;;-2.80;99.90;;;;;;5011292;28;20213;-72
2023/03/01 00:57:53;;;;;;;53.80;14.70;;;-2.80;99.90;;;;;;5005613;28;20253;-74
2023/03/01 01:00:19;;;;;;;50.60;14.10;;;-2.80;99.90;;;;;;5011011;28;20197;-75
2023/03/01 01:02:45;;;;;;;52.63;14.50;;;-2.80;99.90;;;;;;5006644;28;20295;-76
2023/03/01 01:05:11;;;;;;;50.67;15.23;;;-2.80;99.90;;;;;;5011850;28;20461;-76
2023/03/01 01:07:37;;;;;;;54.00;16.20;;;-2.80;99.90;;;;;;5007573;28;20199;-75
2023/03/01 01:10:03;;;;;;;48.17;14.27;;;-2.80;99.90;;;;;;5011227;28;21145;-74
2023/03/01 01:12:28;;;;;;;52.93;14.80;;;-2.80;99.90;;;;;;4994035;28;20436;-75
2023/03/01 01:14:54;;;;;;;49.87;13.90;;;-2.80;99.90;;;;;;5008984;28;20422;-74
2023/03/01 01:17:19;;;;;;;52.13;16.20;;;-2.80;99.90;;;;;;4997013;28;20196;-74
2023/03/01 01:19:45;;;;;;;50.97;13.90;;;-2.80;99.90;;;;;;5006400;28;20640;-74
2023/03/01 01:22:10;;;;;;;48.40;13.80;;;-2.90;99.90;;;;;;5006797;28;20210;-74
2023/03/01 01:24:36;;;;;;;50.03;14.13;;;-2.90;99.90;;;;;;5011375;28;20210;-74
2023/03/01 01:27:01;;;;;;;50.57;13.77;;;-2.90;99.90;;;;;;5006957;28;20179;-74
2023/03/01 01:29:27;;;;;;;52.30;12.90;;;-3.00;99.90;;;;;;5011210;28;20179;-74
2023/03/01 01:31:52;;;;;;;51.13;14.70;;;-3.00;99.90;;;;;;5003915;28;20215;-75
2023/03/01 01:34:20;;;;;;;47.30;14.63;;;-3.10;99.90;;;;;;4999114;28;20679;-74
2023/03/01 01:36:53;;;;;;;52.60;14.33;;;-3.10;99.90;;;;;;5007082;28;20180;-74
2023/03/01 01:39:20;;;;;;;48.43;14.40;;;-3.00;99.90;;;;;;4992026;28;20446;-73
2023/03/01 01:41:45;;;;;;;53.23;13.67;;;-3.00;99.90;;;;;;5007436;28;20432;-74
2023/03/01 01:44:24;;;;;;;52.70;14.50;;;-3.00;99.90;;;;;;4998432;28;20425;-74
2023/03/01 01:46:52;;;;;;;51.70;14.80;;;-3.00;99.90;;;;;;5007606;28;20274;-74
2023/03/01 01:49:36;;;;;;;48.80;14.70;;;-3.00;99.90;;;;;;5000588;28;20427;-74
2023/03/01 01:52:22;;;;;;;56.47;15.20;;;-3.00;99.90;;;;;;5008436;28;20888;-74
2023/03/01 01:55:08;;;;;;;52.73;16.47;;;-3.00;99.90;;;;;;5010747;28;20944;-75
2023/03/01 01:57:41;;;;;;;48.20;15.13;;;-3.10;99.90;;;;;;5008590;28;20526;-74
2023/03/01 03:30:44;;;;;;;64.20;16.83;;;-1.50;99.90;;;;;;5979541;22;20925;-71
2023/03/01 03:33:11;;;;;;;55.43;15.80;;;-1.50;99.90;;;;;;5018455;28;20431;-74
2023/03/01 03:35:45;;;;;;;60.23;16.03;;;-1.40;99.90;;;;;;5015198;28;20419;-74
2023/03/01 03:38:15;;;;;;;57.23;17.70;;;-1.40;99.90;;;;;;5019299;28;20403;-72
2023/03/01 03:41:01;;;;;;;59.90;16.63;;;-1.40;99.90;;;;;;5024149;28;20794;-72
2023/03/01 03:43:27;;;;;;;56.87;16.33;;;-1.30;99.90;;;;;;5024856;28;20483;-72
2023/03/01 03:45:53;;;;;;;57.93;16.57;;;-1.30;99.90;;;;;;5013665;28;20457;-71
2023/03/01 03:48:20;;;;;;;65.60;15.80;;;-1.30;99.90;;;;;;5022490;28;20272;-72
2023/03/01 03:50:51;;;;;;;58.90;16.47;;;-1.30;99.90;;;;;;5021292;28;20230;-72
2023/03/01 03:53:17;;;;;;;59.20;15.50;;;-1.30;99.90;;;;;;5005433;28;20491;-72
2023/03/01 03:55:44;;;;;;;58.97;16.27;;;-1.20;99.90;;;;;;5012643;28;20416;-72
2023/03/01 03:58:10;;;;;;;63.90;14.87;;;-1.20;99.90;;;;;;5020999;28;20659;-72
2023/03/01 04:00:39;;;;;;;60.33;16.77;;;-1.20;99.90;;;;;;5012576;28;20422;-73
2023/03/01 04:03:05;;;;;;;58.83;15.20;;;-1.10;99.90;;;;;;5012692;28;20501;-73
2023/03/01 04:05:31;;;;;;;62.50;15.80;;;-1.10;99.90;;;;;;5012866;28;20410;-73
2023/03/01 04:08:03;;;;;;;60.43;16.87;;;-1.10;99.90;;;;;;5012688;28;20428;-73
2023/03/01 04:10:30;;;;;;;62.00;17.27;;;-1.10;99.90;;;;;;5012221;28;20186;-73
2023/03/01 04:12:56;;;;;;;59.73;16.07;;;-1.10;99.90;;;;;;5012672;28;20433;-74
2023/03/01 04:15:23;;;;;;;61.20;15.77;;;-1.10;99.90;;;;;;5012405;28;20419;-73
2023/03/01 04:17:51;;;;;;;61.13;16.00;;;-1.10;99.90;;;;;;5021260;28;20483;-70
2023/03/01 04:20:24;;;;;;;60.90;16.60;;;-1.10;99.90;;;;;;5028878;28;20440;-73
2023/03/01 04:22:57;;;;;;;66.13;16.43;;;-1.00;99.90;;;;;;5012314;28;20813;-72
2023/03/01 04:25:23;;;;;;;64.17;16.70;;;-0.90;99.90;;;;;;5012264;28;20408;-73
2023/03/01 04:27:48;;;;;;;72.43;18.03;;;-0.90;99.90;;;;;;5020106;28;20428;-71
2023/03/01 04:30:14;;;;;;;68.33;17.63;;;-0.90;99.90;;;;;;5018498;28;20487;-72
2023/03/01 04:32:40;;;;;;;64.00;16.53;;;-0.90;99.90;;;;;;5018771;28;20271;-73
2023/03/01 04:35:05;;;;;;;69.00;16.10;;;-0.80;99.90;;;;;;5027550;28;20197;-73
2023/03/01 04:37:31;;;;;;;66.53;16.07;;;-0.80;99.90;;;;;;5012354;28;20586;-73
2023/03/01 04:39:57;;;;;;;67.70;17.13;;;-0.80;99.90;;;;;;5011445;28;20196;-73
2023/03/01 04:42:23;;;;;;;70.73;16.33;;;-0.70;99.90;;;;;;5012150;28;20214;-73
2023/03/01 04:44:51;;;;;;;70.67;18.70;;;-0.70;99.90;;;;;;5011853;28;20234;-72
2023/03/01 04:47:16;;;;;;;68.47;17.03;;;-0.70;99.90;;;;;;5018669;28;20269;-72
2023/03/01 04:49:42;;;;;;;73.30;16.43;;;-0.70;99.90;;;;;;5031382;28;20516;-73
2023/03/01 04:52:07;;;;;;;72.23;17.77;;;-0.70;99.90;;;;;;5012450;28;20218;-73
2023/03/01 04:54:34;;;;;;;68.77;17.20;;;-0.70;99.90;;;;;;5011688;28;20183;-73
2023/03/01 04:57:00;;;;;;;66.00;18.30;;;-0.70;99.90;;;;;;5020073;28;20248;-73
2023/03/01 04:59:26;;;;;;;71.10;18.07;;;-0.70;99.90;;;;;;5019012;28;20404;-73
2023/03/01 05:01:55;;;;;;;65.57;17.37;;;-0.60;99.90;;;;;;5030418;28;20435;-72
2023/03/01 05:04:21;;;;;;;62.70;17.30;;;-0.60;99.90;;;;;;5019369;28;20274;-73
2023/03/01 05:06:46;;;;;;;66.93;17.20;;;-0.60;99.90;;;;;;5015281;28;20548;-73
2023/03/01 05:09:12;;;;;;;67.40;17.10;;;-0.60;99.90;;;;;;5010990;28;20416;-72
2023/03/01 05:11:38;;;;;;;67.73;16.80;;;-0.60;99.90;;;;;;5019467;28;20777;-73
2023/03/01 05:14:08;;;;;;;70.07;17.97;;;-0.60;99.90;;;;;;5018011;28;20192;-74
2023/03/01 05:16:34;;;;;;;71.67;17.50;;;-0.60;99.90;;;;;;5017576;28;20192;-74
2023/03/01 05:19:00;;;;;;;64.57;16.73;;;-0.50;99.90;;;;;;5011992;28;20412;-74
2023/03/01 05:21:25;;;;;;;69.80;16.60;;;-0.50;99.90;;;;;;5026238;28;20462;-74
2023/03/01 05:23:51;;;;;;;65.27;17.17;;;-0.40;99.90;;;;;;5019361;28;20216;-73
2023/03/01 05:26:19;;;;;;;68.03;17.50;;;-0.40;99.90;;;;;;5027357;28;20436;-72
2023/03/01 05:28:45;;;;;;;73.00;18.33;;;-0.30;99.90;;;;;;5011349;28;20449;-73
2023/03/01 05:31:10;;;;;;;73.10;17.93;;;-0.20;99.90;;;;;;5010986;28;20464;-74
2023/03/01 05:33:37;;;;;;;68.37;18.00;;;-0.10;99.90;;;;;;5018170;28;20777;-74
2023/03/01 05:36:04;;;;;;;76.13;19.00;;;-0.10;99.90;;;;;;5011157;28;20194;-73
2023/03/01 05:38:29;;;;;;;74.00;18.30;;;0.00;99.90;;;;;;5015924;28;20428;-74
2023/03/01 05:40:55;;;;;;;72.20;17.33;;;-0.10;99.90;;;;;;5030022;28;20829;-74
2023/03/01 05:43:20;;;;;;;75.57;17.10;;;-0.10;99.90;;;;;;5025021;28;20228;-73
2023/03/01 05:45:46;;;;;;;74.47;19.23;;;0.00;99.90;;;;;;5010880;28;20192;-74
2023/03/01 05:48:13;;;;;;;149.60;125.03;;;-0.10;99.90;;;;;;5017618;28;20197;-73
2023/03/01 05:50:41;;;;;;;52.10;19.60;;;0.00;99.90;;;;;;5029885;28;20218;-72
2023/03/01 05:53:10;;;;;;;48.73;18.03;;;0.10;99.90;;;;;;5021059;28;20440;-72
2023/03/01 05:55:37;;;;;;;49.73;18.17;;;0.10;99.90;;;;;;5016236;28;20505;-73
2023/03/01 05:58:06;;;;;;;54.97;19.30;;;0.20;99.90;;;;;;5023756;28;20450;-73
2023/03/01 06:00:32;;;;;;;50.83;18.30;;;0.20;99.90;;;;;;5012110;28;20470;-74
2023/03/01 06:02:58;;;;;;;54.93;18.37;;;0.30;99.90;;;;;;5010618;28;20474;-74
2023/03/01 06:05:25;;;;;;;56.50;20.30;;;0.20;99.90;;;;;;5019289;28;20509;-73
2023/03/01 06:07:51;;;;;;;53.90;18.27;;;0.30;99.90;;;;;;5008419;28;20440;-72
2023/03/01 06:10:18;;;;;;;48.00;16.17;;;0.30;99.90;;;;;;5003576;28;20433;-71
2023/03/01 06:12:44;;;;;;;55.73;19.60;;;0.30;99.90;;;;;;5009369;28;20266;-73
2023/03/01 06:15:12;;;;;;;55.33;19.40;;;0.30;99.90;;;;;;5020686;28;20529;-73
2023/03/01 06:17:40;;;;;;;53.47;19.77;;;0.30;99.90;;;;;;5013843;28;20200;-73
2023/03/01 06:20:09;;;;;;;55.90;18.47;;;0.20;99.90;;;;;;5027953;28;20433;-72
2023/03/01 06:22:35;;;;;;;51.87;19.00;;;0.20;99.90;;;;;;5015781;28;20481;-71
2023/03/01 06:25:00;;;;;;;50.83;17.80;;;0.20;99.90;;;;;;5013481;28;20949;-72
2023/03/01 06:27:26;;;;;;;56.97;18.00;;;0.30;99.90;;;;;;5019167;28;20193;-72
2023/03/01 06:29:52;;;;;;;50.50;17.43;;;0.20;99.90;;;;;;5014025;28;20196;-72
2023/03/01 06:32:18;;;;;;;49.63;17.23;;;0.30;99.90;;;;;;5004964;28;20244;-72
2023/03/01 06:34:43;;;;;;;57.27;18.40;;;0.30;99.90;;;;;;5011245;28;20722;-73
2023/03/01 06:37:09;;;;;;;55.53;18.83;;;0.30;99.90;;;;;;5009135;28;20883;-73
2023/03/01 06:39:35;;;;;;;49.63;17.50;;;0.30;99.90;;;;;;5017836;28;20184;-73
2023/03/01 06:42:00;;;;;;;58.87;18.80;;;0.30;99.90;;;;;;5009081;28;20836;-73
2023/03/01 06:44:26;;;;;;;53.37;17.53;;;0.30;99.90;;;;;;5017133;28;20184;-72
2023/03/01 06:46:52;;;;;;;51.17;17.57;;;0.30;99.90;;;;;;5019681;28;20593;-72
2023/03/01 06:49:18;;;;;;;52.27;17.73;;;0.30;99.90;;;;;;5022762;28;20531;-73
2023/03/01 06:51:44;;;;;;;63.07;18.20;;;0.40;99.90;;;;;;5022204;28;20205;-73
2023/03/01 06:54:10;;;;;;;51.50;16.37;;;0.60;99.90;;;;;;5008619;28;20640;-72
2023/03/01 06:56:35;;;;;;;53.00;18.53;;;0.70;99.90;;;;;;5010582;28;20787;-72
2023/03/01 06:59:02;;;;;;;58.63;18.40;;;0.80;99.90;;;;;;5010103;28;20498;-71
2023/03/01 07:01:28;;;;;;;54.90;16.70;;;0.90;99.90;;;;;;5010874;28;20220;-72
2023/03/01 07:03:54;;;;;;;56.00;18.30;;;1.10;99.90;;;;;;5011562;28;20475;-73
2023/03/01 07:06:20;;;;;;;50.90;17.17;;;1.30;99.90;;;;;;5011453;28;20527;-73
2023/03/01 07:08:45;;;;;;;51.37;17.30;;;1.50;99.90;;;;;;5011074;28;20190;-72
2023/03/01 07:11:11;;;;;;;56.17;18.73;;;1.50;99.90;;;;;;5010285;28;20455;-71
2023/03/01 07:13:36;;;;;;;53.07;18.53;;;1.60;99.90;;;;;;5010566;28;20270;-73
2023/03/01 07:16:02;;;;;;;55.87;18.53;;;1.80;99.90;;;;;;5010281;28;20221;-72
2023/03/01 07:18:27;;;;;;;55.90;18.00;;;2.20;99.90;;;;;;5009518;28;20241;-73
2023/03/01 07:20:53;;;;;;;55.50;18.43;;;3.20;99.90;;;;;;5010829;28;20287;-72
2023/03/01 07:23:18;;;;;;;67.07;18.20;;;4.00;99.90;;;;;;5007180;28;20699;-74
2023/03/01 07:25:44;;;;;;;62.00;18.30;;;4.20;99.90;;;;;;5005101;28;20270;-72
2023/03/01 07:28:09;;;;;;;61.63;18.90;;;4.30;99.90;;;;;;5006000;28;20923;-72
2023/03/01 07:30:35;;;;;;;65.15;20.42;;;5.10;99.90;;;;;;5009312;28;20908;-74
2023/03/01 07:33:00;;;;;;;144.07;48.75;;;6.10;99.90;;;;;;5010067;28;20435;-72
2023/03/01 07:35:27;;;;;;;50.63;18.57;;;6.80;99.90;;;;;;5023176;28;20255;-74
2023/03/01 07:37:52;;;;;;;88.47;33.67;;;7.90;99.90;;;;;;5024241;28;20317;-73
2023/03/01 07:40:22;;;;;;;52.70;24.30;;;8.00;99.90;;;;;;5021218;28;20519;-73
2023/03/01 07:42:47;;;;;;;157.27;100.07;;;8.40;99.90;;;;;;5016171;28;20504;-72
2023/03/01 07:45:13;;;;;;;444.17;210.00;;;8.80;99.90;;;;;;5010902;28;20482;-73
2023/03/01 07:47:39;;;;;;;340.40;116.47;;;8.90;99.90;;;;;;5019818;28;20175;-74
2023/03/01 07:50:05;;;;;;;227.40;85.13;;;8.90;99.90;;;;;;5019837;28;20436;-73
2023/03/01 07:52:31;;;;;;;158.93;38.53;;;8.80;99.90;;;;;;5027918;28;20565;-72
2023/03/01 07:54:57;;;;;;;145.50;37.70;;;8.60;99.90;;;;;;5020766;28;20517;-73
2023/03/01 07:57:23;;;;;;;101.57;23.20;;;8.30;99.90;;;;;;5012458;28;20439;-73
2023/03/01 07:59:49;;;;;;;128.37;17.57;;;7.70;99.90;;;;;;5021044;28;20967;-73
2023/03/01 08:02:15;;;;;;;94.47;16.10;;;7.70;99.90;;;;;;5020111;28;20472;-73
2023/03/01 08:04:41;;;;;;;128.47;20.17;;;7.40;99.90;;;;;;5025932;28;20192;-72
2023/03/01 08:07:06;;;;;;;90.00;13.80;;;6.90;99.90;;;;;;5022275;28;20436;-73
2023/03/01 08:09:35;;;;;;;83.67;12.60;;;6.80;99.90;;;;;;5012161;28;20972;-74
2023/03/01 08:12:01;;;;;;;170.30;40.07;;;6.70;99.90;;;;;;5011397;28;20310;-74
2023/03/01 08:14:26;;;;;;;93.90;12.97;;;6.90;99.90;;;;;;5020998;28;20511;-73
2023/03/01 08:16:52;;;;;;;91.87;15.87;;;6.80;99.90;;;;;;5013081;28;20218;-73
2023/03/01 08:19:17;;;;;;;99.90;13.60;;;6.80;99.90;;;;;;5004613;28;20664;-74
2023/03/01 08:21:43;;;;;;;89.73;13.37;;;6.90;99.90;;;;;;5007216;28;20208;-71
2023/03/01 08:24:10;;;;;;;101.77;13.33;;;6.90;99.90;;;;;;5008737;28;20284;-74
2023/03/01 08:26:36;;;;;;;89.77;14.47;;;6.80;99.90;;;;;;5008421;28;20967;-73
2023/03/01 08:29:02;;;;;;;88.70;13.87;;;6.80;99.90;;;;;;5007299;28;20450;-73
2023/03/01 08:31:35;;;;;;;89.27;14.77;;;7.00;99.90;;;;;;5008812;28;20474;-73
2023/03/01 08:34:03;;;;;;;86.60;13.23;;;6.50;99.90;;;;;;5007332;28;20802;-74
2023/03/01 08:36:36;;;;;;;91.43;13.40;;;6.50;99.90;;;;;;5009412;28;20455;-73
2023/03/01 08:39:02;;;;;;;90.67;15.10;;;6.60;99.90;;;;;;5005998;28;20701;-73
2023/03/01 08:41:29;;;;;;;97.73;15.97;;;6.70;99.90;;;;;;5008844;28;20510;-74
2023/03/01 08:43:58;;;;;;;92.07;15.57;;;7.00;99.90;;;;;;5006724;28;20546;-73
2023/03/01 08:46:29;;;;;;;108.70;18.07;;;6.90;99.90;;;;;;5007030;28;20461;-74
2023/03/01 08:48:54;;;;;;;99.80;15.67;;;7.10;99.90;;;;;;5006721;28;20434;-72
2023/03/01 08:51:20;;;;;;;94.50;15.80;;;7.40;99.90;;;;;;5011116;28;20592;-74
2023/03/01 08:53:47;;;;;;;100.97;16.90;;;7.30;99.90;;;;;;5027668;28;20201;-73
2023/03/01 08:56:14;;;;;;;104.30;17.73;;;7.50;99.90;;;;;;5019862;28;20443;-74
2023/03/01 08:58:39;;;;;;;117.20;20.90;;;7.80;99.90;;;;;;5001622;28;20444;-72
2023/03/01 09:01:09;;;;;;;110.57;19.00;;;8.00;99.90;;;;;;5002731;28;20463;-71
2023/03/01 09:03:36;;;;;;;101.83;19.90;;;8.20;99.90;;;;;;5014042;28;20581;-73
2023/03/01 09:06:03;;;;;;;111.57;21.63;;;8.40;99.90;;;;;;5006589;28;20993;-74
2023/03/01 09:08:29;;;;;;;110.03;21.43;;;8.60;99.90;;;;;;5012841;28;20428;-73
2023/03/01 09:10:55;;;;;;;206.83;64.70;;;8.60;99.90;;;;;;5008192;28;20438;-73
2023/03/01 09:13:23;;;;;;;89.97;16.70;;;8.50;99.90;;;;;;5027453;28;20606;-73
2023/03/01 09:15:49;;;;;;;97.10;21.03;;;8.20;99.90;;;;;;5015388;28;20801;-72
2023/03/01 09:18:14;;;;;;;101.50;19.30;;;8.40;99.90;;;;;;5025648;28;20439;-74
2023/03/01 09:20:40;;;;;;;101.70;21.03;;;8.50;99.90;;;;;;5010062;28;20225;-73
2023/03/01 09:23:05;;;;;;;98.57;19.90;;;8.50;99.90;;;;;;5026406;28;20214;-72
2023/03/01 09:25:31;;;;;;;100.03;20.93;;;8.80;99.90;;;;;;5020189;28;20661;-71
2023/03/01 09:27:56;;;;;;;103.67;20.93;;;9.00;99.90;;;;;;5011505;28;20284;-73
2023/03/01 09:30:22;;;;;;;116.90;21.67;;;8.90;99.90;;;;;;5020509;28;20655;-73
2023/03/01 09:32:47;;;;;;;83.27;15.03;;;8.90;99.90;;;;;;5015884;28;20188;-74
2023/03/01 09:35:13;;;;;;;81.20;12.37;;;8.90;99.90;;;;;;5011624;28;20193;-73
2023/03/01 09:37:42;;;;;;;85.03;13.73;;;9.10;99.90;;;;;;5030429;28;20247;-74
2023/03/01 09:40:15;;;;;;;88.27;15.17;;;9.10;99.90;;;;;;5023426;28;20191;-72
2023/03/01 09:43:03;;;;;;;91.80;16.67;;;9.40;99.90;;;;;;5023717;28;20498;-74
2023/03/01 09:45:35;;;;;;;754.70;368.20;;;9.50;99.90;;;;;;5021044;28;20449;-76
2023/03/01 09:48:01;;;;;;;139.13;29.50;;;9.40;99.90;;;;;;5011275;28;20442;-73
2023/03/01 09:50:35;;;;;;;82.40;15.10;;;9.30;99.90;;;;;;5010055;28;20889;-74
2023/03/01 09:53:14;;;;;;;85.60;14.90;;;9.40;99.90;;;;;;5018220;28;20770;-74
2023/03/01 09:55:54;;;;;;;29.90;18.97;;;9.60;99.90;;;;;;5008109;28;20465;-73
2023/03/01 09:58:41;;;;;;;27.40;18.77;;;9.80;99.90;;;;;;5028740;28;20934;-74
2023/03/01 10:01:32;;;;;;;31.57;18.33;;;10.00;99.90;;;;;;5030412;28;20465;-74
2023/03/01 10:04:09;;;;;;;23.33;17.20;;;10.00;99.90;;;;;;5006432;28;20843;-74
2023/03/01 10:06:35;;;;;;;26.03;17.77;;;10.30;99.90;;;;;;5011495;28;20444;-74
2023/03/01 10:09:06;;;;;;;27.83;17.57;;;10.00;99.90;;;;;;5019686;28;20466;-76
2023/03/01 10:11:42;;;;;;;25.27;17.70;;;10.40;99.90;;;;;;5019434;28;20198;-74
2023/03/01 10:14:31;;;;;;;26.97;19.40;;;10.40;99.90;;;;;;5011069;28;20433;-75
2023/03/01 10:17:03;;;;;;;29.17;17.73;;;10.20;99.90;;;;;;5015605;28;20445;-75
2023/03/01 10:19:28;;;;;;;54.03;26.20;;;10.60;99.90;;;;;;5010453;28;20440;-74
2023/03/01 10:21:57;;;;;;;36.33;20.40;;;10.70;99.90;;;;;;5020695;28;20466;-74
2023/03/01 10:24:22;;;;;;;33.63;19.00;;;10.70;99.90;;;;;;5020652;28;20277;-74
2023/03/01 10:26:54;;;;;;;28.13;18.23;;;10.90;99.90;;;;;;5018622;28;21008;-74
2023/03/01 10:29:30;;;;;;;150.40;71.63;;;11.30;99.90;;;;;;5011920;28;20190;-75
2023/03/01 10:31:56;;;;;;;115.37;22.50;;;11.20;99.90;;;;;;5014548;28;20988;-74
2023/03/01 10:34:31;;;;;;;116.60;24.50;;;11.50;99.90;;;;;;5022843;28;20424;-74
2023/03/01 10:37:01;;;;;;;114.47;23.43;;;11.00;99.90;;;;;;5029994;28;20196;-75
2023/03/01 10:39:27;;;;;;;109.00;22.83;;;11.10;99.90;;;;;;5026477;28;20428;-72
2023/03/01 10:41:56;;;;;;;114.70;23.40;;;11.40;99.90;;;;;;5024434;28;20598;-74
2023/03/01 10:44:41;;;;;;;108.80;22.07;;;11.70;99.90;;;;;;5024964;28;20532;-75
2023/03/01 10:47:27;;;;;;;104.37;22.87;;;11.80;99.90;;;;;;5025961;28;20436;-73
2023/03/01 10:49:52;;;;;;;108.30;21.37;;;12.30;99.90;;;;;;5015084;28;20493;-75
2023/03/01 10:52:21;;;;;;;107.73;23.47;;;12.60;98.70;;;;;;5024788;28;20452;-74
2023/03/01 10:55:24;;;;;;;103.27;21.30;;;12.00;98.20;;;;;;5020888;28;20183;-74
2023/03/01 10:57:50;;;;;;;107.37;20.30;;;12.00;99.00;;;;;;5012589;28;20460;-73
2023/03/01 11:00:22;;;;;;;104.00;21.60;;;12.10;99.00;;;;;;5022395;28;20481;-74
2023/03/01 11:02:58;;;;;;;106.03;21.70;;;12.10;97.70;;;;;;5018788;28;20478;-73
2023/03/01 11:05:25;;;;;;;104.77;21.50;;;12.00;98.00;;;;;;5023278;28;20432;-73
2023/03/01 11:07:53;;;;;;;103.33;20.83;;;11.80;99.80;;;;;;5018419;28;20575;-74
2023/03/01 11:10:27;;;;;;;106.43;22.50;;;11.60;98.40;;;;;;5016222;28;20451;-75
2023/03/01 11:12:53;;;;;;;106.10;21.70;;;11.90;98.50;;;;;;5027984;28;20429;-74
2023/03/01 11:15:23;;;;;;;103.47;20.03;;;12.10;98.10;;;;;;5022185;28;20452;-74
2023/03/01 11:17:50;;;;;;;103.80;21.63;;;12.00;97.50;;;;;;5033544;28;20421;-74
2023/03/01 11:20:26;;;;;;;105.47;21.10;;;11.80;97.90;;;;;;5016494;28;20437;-74
2023/03/01 11:22:59;;;;;;;105.57;20.67;;;11.60;97.30;;;;;;5019053;28;20475;-74
2023/03/01 11:25:29;;;;;;;105.30;20.70;;;11.60;98.30;;;;;;5024584;28;20489;-74
2023/03/01 11:27:56;;;;;;;112.03;21.40;;;11.40;97.20;;;;;;5033368;28;20531;-74
2023/03/01 11:30:43;;;;;;;102.50;21.07;;;11.50;97.30;;;;;;5025702;28;20439;-73
2023/03/01 11:33:19;;;;;;;100.30;19.83;;;11.30;98.50;;;;;;5017217;28;20934;-74
2023/03/01 11:36:00;;;;;;;97.87;19.07;;;11.00;98.20;;;;;;5011508;28;20455;-74
2023/03/01 11:38:27;;;;;;;87.43;19.93;;;11.00;98.40;;;;;;5014729;28;20466;-71
2023/03/01 11:41:07;;;;;;;99.60;20.00;;;11.30;98.90;;;;;;5017825;28;20746;-75
2023/03/01 11:43:49;;;;;;;102.23;19.70;;;11.30;98.90;;;;;;5032415;28;20478;-74
2023/03/01 11:46:32;;;;;;;94.50;17.73;;;11.10;98.50;;;;;;5026048;28;20937;-73
2023/03/01 11:49:30;;;;;;;101.37;18.93;;;11.00;98.70;;;;;;5029583;28;20441;-75
2023/03/01 11:52:14;;;;;;;100.50;19.53;;;10.70;99.90;;;;;;5026584;28;20541;-75
2023/03/01 11:54:45;;;;;;;100.10;18.93;;;10.90;99.90;;;;;;5015012;28;20436;-73
2023/03/01 11:57:49;;;;;;;102.87;19.47;;;10.70;99.30;;;;;;5017009;28;20416;-75
2023/03/01 12:00:44;;;;;;;102.00;20.60;;;10.30;99.90;;;;;;5009471;28;20425;-72
2023/03/01 12:03:37;;;;;;;97.47;17.43;;;10.30;99.90;;;;;;5017689;28;20480;-74
2023/03/01 12:06:37;;;;;;;96.50;16.87;;;10.50;99.90;;;;;;5011777;28;20442;-74
2023/03/01 12:09:30;;;;;;;102.33;18.73;;;10.70;99.90;;;;;;5014671;28;20429;-73
2023/03/01 12:12:23;;;;;;;101.10;17.27;;;9.90;99.90;;;;;;5015086;28;21003;-74
2023/03/01 12:15:22;;;;;;;101.70;18.03;;;10.00;99.90;;;;;;5013994;28;20428;-74
2023/03/01 12:18:06;;;;;;;105.17;17.40;;;10.00;99.90;;;;;;5019379;28;20424;-74
2023/03/01 12:20:40;;;;;;;98.00;17.80;;;10.00;99.90;;;;;;5020255;28;20461;-74
2023/03/01 12:23:24;;;;;;;98.07;17.10;;;9.90;99.90;;;;;;5020684;28;20474;-74
2023/03/01 12:26:08;;;;;;;96.70;17.60;;;9.90;99.90;;;;;;5012234;28;20427;-74
2023/03/01 12:28:51;;;;;;;98.90;18.63;;;9.80;99.90;;;;;;5022765;28;20433;-73
2023/03/01 12:31:32;;;;;;;94.57;17.60;;;9.50;99.90;;;;;;5020089;28;20871;-71
2023/03/01 12:34:11;;;;;;;97.93;16.43;;;9.20;99.90;;;;;;5007419;28;20444;-74
2023/03/01 12:36:55;;;;;;;105.83;21.23;;;9.30;99.90;;;;;;5022561;28;23066;-74
2023/03/01 12:39:58;;;;;;;107.20;20.20;;;9.20;99.90;;;;;;5013525;28;20515;-73
2023/03/01 12:42:32;;;;;;;100.23;18.97;;;9.10;99.90;;;;;;5022673;28;21008;-74
2023/03/01 12:45:12;;;;;;;101.40;19.33;;;9.10;99.90;;;;;;5020080;28;20427;-74
2023/03/01 12:47:58;;;;;;;100.60;18.90;;;9.40;99.90;;;;;;5022255;28;20438;-73
2023/03/01 12:50:28;;;;;;;99.07;17.63;;;9.50;99.90;;;;;;5021752;28;20435;-73
2023/03/01 12:52:56;;;;;;;99.63;18.23;;;9.70;99.90;;;;;;5019576;28;20470;-74
2023/03/01 12:55:38;;;;;;;101.00;17.27;;;9.70;99.90;;;;;;5019931;28;20402;-74
2023/03/01 12:58:25;;;;;;;96.53;16.80;;;9.70;99.90;;;;;;5022371;28;20527;-74
2023/03/01 13:01:27;;;;;;;90.80;18.00;;;9.70;99.90;;;;;;5012704;28;20480;-74
2023/03/01 13:04:07;;;;;;;89.47;16.93;;;9.80;99.90;;;;;;5014220;28;20477;-74
2023/03/01 13:06:53;;;;;;;91.17;17.40;;;9.80;99.90;;;;;;5021099;28;20769;-74
2023/03/01 13:10:01;;;;;;;86.23;16.83;;;9.80;99.90;;;;;;5025025;28;20525;-74
2023/03/01 13:12:49;;;;;;;89.27;15.70;;;9.70;99.90;;;;;;4996469;28;20482;-74
2023/03/01 13:15:23;;;;;;;92.67;17.90;;;9.70;99.90;;;;;;5021646;28;20523;-74
2023/03/01 13:17:53;;;;;;;101.20;18.30;;;9.70;99.90;;;;;;5012109;28;20550;-75
2023/03/01 13:20:42;;;;;;;93.23;17.10;;;9.70;99.90;;;;;;5020185;28;20878;-75
2023/03/01 13:23:13;;;;;;;98.47;18.23;;;9.70;99.90;;;;;;5014409;28;20467;-74
2023/03/01 13:25:59;;;;;;;99.03;17.50;;;9.60;99.90;;;;;;5021170;28;20960;-74
2023/03/01 13:28:34;;;;;;;95.13;17.30;;;9.60;99.90;;;;;;5020485;28;20443;-74
2023/03/01 13:31:01;;;;;;;97.47;18.27;;;9.40;99.90;;;;;;5017555;28;20457;-74
2023/03/01 13:33:26;;;;;;;95.10;17.20;;;9.20;99.90;;;;;;5018777;28;20487;-74
2023/03/01 13:35:53;;;;;;;92.57;17.10;;;9.10;99.90;;;;;;5019158;28;20444;-74
2023/03/01 13:38:42;;;;;;;93.80;16.90;;;9.10;99.90;;;;;;5019297;28;20200;-74
2023/03/01 13:41:08;;;;;;;97.37;17.23;;;9.20;99.90;;;;;;5014219;28;20448;-74
2023/03/01 13:43:40;;;;;;;97.13;18.07;;;9.10;99.90;;;;;;5019915;28;20475;-74
2023/03/01 13:46:23;;;;;;;97.03;18.60;;;9.00;99.90;;;;;;5019622;28;20188;-75
2023/03/01 13:48:55;;;;;;;94.60;18.70;;;8.90;99.90;;;;;;5014034;28;20422;-74
2023/03/01 13:51:27;;;;;;;94.40;17.67;;;8.90;99.90;;;;;;5022618;28;20457;-74
2023/03/01 13:53:55;;;;;;;90.93;17.67;;;9.00;99.90;;;;;;5011624;28;20442;-74
2023/03/01 13:56:36;;;;;;;100.20;18.97;;;9.00;99.90;;;;;;5019124;28;20977;-74
2023/03/01 13:59:17;;;;;;;93.73;18.60;;;8.90;99.90;;;;;;5013160;28;20425;-74
2023/03/01 14:01:43;;;;;;;97.40;18.00;;;8.70;99.90;;;;;;5019667;28;20828;-74
2023/03/01 14:04:38;;;;;;;99.40;18.93;;;8.70;99.90;;;;;;5020048;28;20528;-74
2023/03/01 14:07:24;;;;;;;95.00;17.60;;;8.80;99.90;;;;;;5019497;28;20203;-74
2023/03/01 14:09:55;;;;;;;97.80;19.00;;;8.90;99.90;;;;;;5015144;28;20421;-74
2023/03/01 14:12:42;;;;;;;95.00;18.60;;;8.90;99.90;;;;;;5028327;28;20463;-75
2023/03/01 14:15:17;;;;;;;91.67;17.13;;;8.80;99.90;;;;;;5015868;28;20498;-74
2023/03/01 14:17:48;;;;;;;98.50;19.17;;;8.80;99.90;;;;;;5022982;28;20454;-74